Time;durP1;ratioP1;P1;durP2;ratioP2;P2;SDS_P1;SDS_P2;PMS_P1;PMS_P2;Temp;Humidity;BMP_temperature;BMP_pressure;BME280_temperature;BME280_humidity;BME280_pressure;Samples;Min_cycle;Max_cycle;Signal;HPM_P1;HPM_P2
2022/06/05 00:01:20;;;;;;;21.08;13.98;;;11.10;99.90;;;;;;5076373;28;20118;-65
2022/06/05 00:04:17;;;;;;;16.98;13.43;;;11.10;99.90;;;;;;5096470;28;20043;-65
2022/06/05 00:06:54;;;;;;;19.08;14.23;;;11.10;99.90;;;;;;5062425;28;20051;-65
2022/06/05 00:09:29;;;;;;;17.38;14.05;;;11.00;99.90;;;;;;5078763;28;20486;-65
2022/06/05 00:12:16;;;;;;;19.92;14.05;;;11.00;99.90;;;;;;5094385;28;20032;-65
2022/06/05 00:14:42;;;;;;;17.17;13.38;;;11.00;99.90;;;;;;5093337;28;20598;-65
2022/06/05 00:17:18;;;;;;;18.77;13.90;;;11.00;99.90;;;;;;5074864;28;20075;-65
2022/06/05 00:19:46;;;;;;;21.02;15.35;;;11.00;99.90;;;;;;5077178;28;20039;-65
2022/06/05 00:22:13;;;;;;;15.40;13.80;;;11.00;99.90;;;;;;5116522;27;20127;-65
2022/06/05 00:24:38;;;;;;;19.48;14.23;;;11.00;99.90;;;;;;5080768;28;20041;-65
2022/06/05 00:27:18;;;;;;;19.77;14.55;;;10.90;99.90;;;;;;5092193;28;20089;-65
2022/06/05 00:30:05;;;;;;;20.38;14.90;;;11.00;99.90;;;;;;5079667;28;20035;-65
2022/06/05 00:32:37;;;;;;;21.65;15.43;;;11.00;99.90;;;;;;5074610;28;20040;-65
2022/06/05 00:35:04;;;;;;;18.73;15.07;;;11.00;99.90;;;;;;5078817;28;20067;-65
2022/06/05 00:37:50;;;;;;;16.95;14.35;;;10.90;99.90;;;;;;5095610;28;20040;-66
2022/06/05 00:40:34;;;;;;;20.85;15.60;;;11.00;99.90;;;;;;5048100;28;20142;-65
2022/06/05 00:43:03;;;;;;;19.35;15.43;;;10.90;99.90;;;;;;5055506;28;20513;-65
2022/06/05 00:45:30;;;;;;;17.05;14.57;;;10.90;99.90;;;;;;5091171;28;20040;-65
2022/06/05 00:47:57;;;;;;;18.27;14.52;;;10.90;99.90;;;;;;5074056;28;20082;-65
2022/06/05 00:50:27;;;;;;;19.38;15.23;;;10.90;99.90;;;;;;5077078;28;20162;-66
2022/06/05 00:52:55;;;;;;;19.67;14.75;;;10.90;99.90;;;;;;5094166;28;20442;-66
2022/06/05 00:55:23;;;;;;;17.60;13.50;;;10.80;99.90;;;;;;5079878;28;20044;-65
2022/06/05 00:57:49;;;;;;;21.10;14.85;;;10.90;99.90;;;;;;5078848;28;20036;-65
2022/06/05 01:00:18;;;;;;;19.55;15.27;;;10.90;99.90;;;;;;5067984;28;20135;-65
2022/06/05 01:02:47;;;;;;;17.35;13.85;;;10.90;99.90;;;;;;5072997;28;20088;-66
2022/06/05 01:05:15;;;;;;;19.23;14.00;;;10.90;99.90;;;;;;5103772;27;20040;-65
2022/06/05 01:07:41;;;;;;;17.77;13.38;;;10.90;99.90;;;;;;5090220;28;20035;-65
2022/06/05 01:10:08;;;;;;;15.13;13.45;;;10.90;99.90;;;;;;5088166;28;20036;-65
2022/06/05 01:12:53;;;;;;;18.55;13.75;;;10.90;99.90;;;;;;5092761;28;20086;-65
2022/06/05 01:15:22;;;;;;;17.75;15.07;;;10.90;99.90;;;;;;5077270;28;20085;-65
2022/06/05 01:18:12;;;;;;;18.63;14.43;;;10.90;99.90;;;;;;5076138;28;20046;-65
2022/06/05 01:20:47;;;;;;;16.95;13.88;;;10.90;99.90;;;;;;5088696;28;20484;-65
2022/06/05 01:23:21;;;;;;;15.75;14.15;;;10.90;99.90;;;;;;5089657;28;20545;-65
2022/06/05 01:26:05;;;;;;;20.63;14.75;;;10.90;99.90;;;;;;5089649;28;20135;-65
2022/06/05 01:28:34;;;;;;;22.15;14.68;;;10.90;99.90;;;;;;5088582;28;20391;-65
2022/06/05 01:31:10;;;;;;;21.58;13.88;;;10.90;99.90;;;;;;5083055;28;20134;-65
2022/06/05 01:33:42;;;;;;;17.63;15.70;;;11.00;99.90;;;;;;5089995;28;20043;-65
2022/06/05 01:36:23;;;;;;;16.77;14.15;;;10.90;99.90;;;;;;5094052;28;20038;-65
2022/06/05 01:38:56;;;;;;;16.55;12.77;;;10.90;99.90;;;;;;5073122;28;20047;-65
2022/06/05 01:41:40;;;;;;;15.35;13.80;;;10.90;99.90;;;;;;5103933;27;20508;-65
2022/06/05 01:44:12;;;;;;;18.13;13.13;;;10.90;99.90;;;;;;5064734;28;20063;-65
2022/06/05 01:46:38;;;;;;;20.35;13.18;;;10.90;99.90;;;;;;5072193;28;20328;-66
2022/06/05 01:49:30;;;;;;;18.52;13.57;;;10.90;99.90;;;;;;5091674;28;20039;-65
2022/06/05 01:51:59;;;;;;;21.40;14.00;;;11.00;99.90;;;;;;5074166;28;20044;-65
2022/06/05 01:54:42;;;;;;;17.58;13.45;;;10.90;99.90;;;;;;5071988;28;20032;-65
2022/06/05 01:57:11;;;;;;;16.90;13.15;;;10.90;99.90;;;;;;5090987;28;20517;-65
2022/06/05 01:59:51;;;;;;;19.75;14.27;;;11.00;99.90;;;;;;5067170;28;20055;-65
2022/06/05 02:02:25;;;;;;;15.90;12.55;;;11.00;99.90;;;;;;5070406;28;20078;-65
2022/06/05 02:05:00;;;;;;;20.20;13.23;;;10.90;99.90;;;;;;5073063;28;20109;-65
2022/06/05 02:07:35;;;;;;;18.27;13.52;;;10.90;99.90;;;;;;5069739;28;20063;-65
2022/06/05 02:10:09;;;;;;;20.50;14.00;;;10.90;99.90;;;;;;5092030;28;20109;-65
2022/06/05 02:12:36;;;;;;;17.88;13.25;;;10.90;99.90;;;;;;5070081;28;20047;-65
2022/06/05 02:15:02;;;;;;;18.90;14.18;;;10.90;99.90;;;;;;5080651;28;20093;-65
2022/06/05 02:17:30;;;;;;;20.00;14.68;;;10.90;99.90;;;;;;5076656;28;20509;-65
2022/06/05 02:19:57;;;;;;;19.17;14.77;;;11.00;99.90;;;;;;5080430;28;20049;-65
2022/06/05 02:22:35;;;;;;;20.10;14.80;;;11.00;99.90;;;;;;5078434;28;20127;-65
2022/06/05 02:25:01;;;;;;;20.40;13.88;;;11.00;99.90;;;;;;5097086;28;20046;-65
2022/06/05 02:27:27;;;;;;;17.17;14.57;;;10.90;99.90;;;;;;5105664;27;20066;-65
2022/06/05 02:29:55;;;;;;;16.73;13.60;;;11.00;99.90;;;;;;5077925;28;20035;-65
2022/06/05 02:32:33;;;;;;;19.17;12.70;;;11.00;99.90;;;;;;5078448;28;20122;-65
2022/06/05 02:35:21;;;;;;;21.60;13.82;;;11.00;99.90;;;;;;5081831;28;20040;-65
2022/06/05 02:37:52;;;;;;;23.38;14.88;;;11.00;99.90;;;;;;5094620;28;20520;-65
2022/06/05 02:40:39;;;;;;;17.58;13.70;;;11.00;99.90;;;;;;5074401;28;20093;-65
2022/06/05 02:43:20;;;;;;;25.90;13.25;;;11.00;99.90;;;;;;5106484;27;20043;-65
2022/06/05 02:46:02;;;;;;;19.75;14.10;;;11.00;99.90;;;;;;5073961;28;20075;-65
2022/06/05 02:48:38;;;;;;;19.63;14.00;;;11.00;99.90;;;;;;5095653;28;20037;-65
2022/06/05 02:51:10;;;;;;;;;;;11.10;99.90;;;;;;5094819;28;20031;-65
2022/06/05 02:53:48;;;;;;;20.77;13.60;;;11.00;99.90;;;;;;5108318;27;20382;-65
2022/06/05 02:56:14;;;;;;;18.13;14.02;;;11.00;99.90;;;;;;5075835;28;20048;-65
2022/06/05 02:58:39;;;;;;;22.05;14.40;;;11.00;99.90;;;;;;5089933;28;20043;-65
2022/06/05 03:03:49;;;;;;;20.13;13.75;;;11.10;99.90;;;;;;5085141;28;20044;-65
2022/06/05 03:06:15;;;;;;;22.27;14.15;;;11.10;99.90;;;;;;5081000;28;20042;-65
2022/06/05 03:08:41;;;;;;;21.08;14.80;;;11.10;99.90;;;;;;5095554;28;20032;-65
2022/06/05 03:11:06;;;;;;;19.92;15.30;;;11.10;99.90;;;;;;5110987;27;20051;-65
2022/06/05 03:13:32;;;;;;;20.95;15.43;;;11.10;99.90;;;;;;5069548;28;20472;-65
2022/06/05 03:15:58;;;;;;;18.15;14.80;;;11.10;99.90;;;;;;5105867;27;20606;-65
2022/06/05 03:18:24;;;;;;;21.17;15.10;;;11.20;99.90;;;;;;5095409;28;20051;-65
2022/06/05 03:20:50;;;;;;;19.63;14.65;;;11.20;99.90;;;;;;5107755;27;20048;-65
2022/06/05 03:23:16;;;;;;;18.30;16.15;;;11.20;99.90;;;;;;5094788;28;20619;-65
2022/06/05 03:25:42;;;;;;;19.02;14.98;;;11.30;99.90;;;;;;5099580;28;20042;-65
2022/06/05 03:28:09;;;;;;;20.10;15.10;;;11.30;99.90;;;;;;5106685;27;20546;-65
2022/06/05 03:30:42;;;;;;;22.70;16.23;;;11.40;99.90;;;;;;5098006;28;20032;-65
2022/06/05 03:33:09;;;;;;;20.88;14.65;;;11.30;99.90;;;;;;5075722;28;20105;-65
2022/06/05 03:35:37;;;;;;;22.33;15.68;;;11.30;99.90;;;;;;5076400;28;20428;-65
2022/06/05 03:38:04;;;;;;;23.13;16.77;;;11.40;99.90;;;;;;5094423;28;20047;-65
2022/06/05 03:40:31;;;;;;;21.17;16.80;;;11.40;99.90;;;;;;5073509;28;20031;-65
2022/06/05 03:42:56;;;;;;;21.65;15.68;;;11.50;99.90;;;;;;5077841;28;20048;-65
2022/06/05 03:45:22;;;;;;;25.98;17.55;;;11.50;99.90;;;;;;5105214;27;20171;-65
2022/06/05 03:47:48;;;;;;;19.90;15.50;;;11.50;99.90;;;;;;5074272;28;20127;-65
2022/06/05 03:50:16;;;;;;;17.17;14.85;;;11.60;99.90;;;;;;5095114;28;20032;-65
2022/06/05 03:52:42;;;;;;;18.50;15.75;;;11.60;99.90;;;;;;5095838;28;20082;-65
2022/06/05 03:55:10;;;;;;;18.08;15.15;;;11.60;99.90;;;;;;5073929;28;20044;-65
2022/06/05 03:57:35;;;;;;;24.92;16.80;;;11.60;99.90;;;;;;5094742;28;20043;-65
2022/06/05 04:00:02;;;;;;;23.42;17.23;;;11.60;99.90;;;;;;5064031;28;20336;-65
2022/06/05 04:02:27;;;;;;;19.60;15.80;;;11.60;99.90;;;;;;5093624;28;20390;-65
2022/06/05 04:04:53;;;;;;;20.20;16.13;;;11.70;99.90;;;;;;5094495;28;20071;-65
2022/06/05 04:07:19;;;;;;;20.50;16.08;;;11.70;99.90;;;;;;5102893;27;20429;-65
2022/06/05 04:09:45;;;;;;;18.70;15.25;;;11.80;99.90;;;;;;5079075;28;20127;-65
2022/06/05 04:12:10;;;;;;;18.92;15.45;;;12.00;99.90;;;;;;5077781;28;20039;-65
2022/06/05 04:14:36;;;;;;;20.17;15.55;;;12.00;99.90;;;;;;5105542;27;20093;-65
2022/06/05 04:17:02;;;;;;;20.63;15.05;;;11.90;99.90;;;;;;5090966;28;20537;-65
2022/06/05 04:19:27;;;;;;;19.40;15.52;;;12.00;99.90;;;;;;5075199;28;20043;-65
2022/06/05 04:21:53;;;;;;;18.20;15.10;;;12.00;99.90;;;;;;5095738;28;20114;-65
2022/06/05 04:24:20;;;;;;;19.83;14.27;;;12.10;99.90;;;;;;5074052;28;20040;-65
2022/06/05 04:26:46;;;;;;;19.08;14.70;;;12.20;99.90;;;;;;5095442;28;20040;-65
2022/06/05 04:29:12;;;;;;;18.02;14.23;;;12.30;99.90;;;;;;5108504;27;20486;-65
2022/06/05 04:31:44;;;;;;;19.10;15.45;;;12.60;99.90;;;;;;5105571;27;20027;-65
2022/06/05 04:34:11;;;;;;;15.30;12.68;;;12.90;99.90;;;;;;5072974;28;20115;-65
2022/06/05 04:36:37;;;;;;;12.73;11.52;;;13.40;99.90;;;;;;5059671;28;20490;-65
2022/06/05 04:39:04;;;;;;;15.45;11.32;;;13.90;99.90;;;;;;5075296;28;20066;-65
2022/06/05 04:41:30;;;;;;;16.75;12.45;;;14.30;99.90;;;;;;5090726;28;20046;-65
2022/06/05 04:43:56;;;;;;;12.73;10.82;;;14.40;99.90;;;;;;5106090;27;20130;-65
2022/06/05 04:46:24;;;;;;;12.75;11.45;;;14.30;99.90;;;;;;5097338;28;20507;-65
2022/06/05 04:48:50;;;;;;;15.77;10.82;;;14.30;99.90;;;;;;5067720;28;20067;-65
2022/06/05 04:51:18;;;;;;;15.27;10.63;;;14.40;99.90;;;;;;5096908;28;20047;-65
2022/06/05 04:53:45;;;;;;;12.07;10.45;;;14.50;99.90;;;;;;5091471;28;20040;-65
2022/06/05 04:56:14;;;;;;;14.55;11.02;;;14.40;99.90;;;;;;5074670;28;20044;-65
2022/06/05 04:58:40;;;;;;;12.80;11.25;;;14.30;99.90;;;;;;5075276;28;20110;-65
2022/06/05 05:01:15;;;;;;;13.23;11.38;;;14.20;99.90;;;;;;5076694;28;20049;-65
2022/06/05 05:03:41;;;;;;;13.60;11.40;;;14.10;99.90;;;;;;5078901;28;20050;-65
2022/06/05 05:06:07;;;;;;;12.93;11.55;;;14.00;99.90;;;;;;5074321;28;20637;-65
2022/06/05 05:08:33;;;;;;;11.45;10.00;;;13.90;99.90;;;;;;5090527;28;20040;-65
2022/06/05 05:10:58;;;;;;;14.43;11.52;;;14.00;99.90;;;;;;5074354;28;20047;-65
2022/06/05 05:13:24;;;;;;;12.40;10.73;;;13.80;99.90;;;;;;5109592;27;20052;-65
2022/06/05 05:15:52;;;;;;;13.48;10.77;;;13.90;99.90;;;;;;5077726;28;20043;-65
2022/06/05 05:18:18;;;;;;;12.32;10.93;;;13.80;99.90;;;;;;5089429;28;20069;-65
2022/06/05 05:20:43;;;;;;;13.50;11.93;;;13.80;99.90;;;;;;5065807;28;20028;-65
2022/06/05 05:23:09;;;;;;;12.27;11.07;;;13.70;99.90;;;;;;5091605;28;20031;-65
2022/06/05 05:25:35;;;;;;;16.63;11.07;;;13.70;99.90;;;;;;5093806;28;20031;-66
2022/06/05 05:28:00;;;;;;;13.90;12.43;;;13.70;99.90;;;;;;5092312;28;20363;-65
2022/06/05 05:30:26;;;;;;;12.73;11.50;;;13.80;99.90;;;;;;5106127;27;20048;-65
2022/06/05 05:32:52;;;;;;;17.05;12.30;;;13.70;99.90;;;;;;5077611;28;20032;-65
2022/06/05 05:35:20;;;;;;;16.05;11.27;;;13.80;99.90;;;;;;5086310;28;20090;-65
2022/06/05 05:37:46;;;;;;;13.18;11.80;;;13.70;99.90;;;;;;5075136;28;20043;-65
2022/06/05 05:42:56;;;;;;;14.52;12.68;;;13.70;99.90;;;;;;5082055;28;20051;-65
2022/06/05 05:45:22;;;;;;;13.30;11.90;;;13.70;99.90;;;;;;5071311;28;20038;-65
2022/06/05 05:47:48;;;;;;;14.02;11.98;;;13.80;99.90;;;;;;5091894;28;20031;-65
2022/06/05 05:50:17;;;;;;;12.57;11.27;;;13.90;99.90;;;;;;5062789;28;20482;-65
2022/06/05 05:52:44;;;;;;;15.15;12.15;;;13.90;99.90;;;;;;5084457;28;20176;-65
2022/06/05 05:55:19;;;;;;;14.13;12.73;;;13.90;99.90;;;;;;5091142;28;20040;-65
2022/06/05 05:57:47;;;;;;;12.30;11.07;;;14.00;99.90;;;;;;5095817;28;20042;-65
2022/06/05 06:00:15;;;;;;;12.43;11.02;;;14.10;99.90;;;;;;5087243;28;20043;-65
2022/06/05 06:02:42;;;;;;;13.50;10.93;;;14.10;99.90;;;;;;5090706;28;20044;-65
2022/06/05 06:05:11;;;;;;;12.82;11.35;;;14.20;99.90;;;;;;5090775;28;20035;-65
2022/06/05 06:07:40;;;;;;;12.75;10.85;;;14.30;99.90;;;;;;5075426;28;20055;-65
2022/06/05 06:10:07;;;;;;;12.48;10.75;;;14.30;99.90;;;;;;5073962;28;20119;-65
2022/06/05 06:12:34;;;;;;;13.35;11.57;;;14.40;99.90;;;;;;5074463;28;20048;-65
2022/06/05 06:15:00;;;;;;;12.82;11.52;;;14.50;99.90;;;;;;5090095;28;20043;-65
2022/06/05 06:17:26;;;;;;;13.93;11.90;;;14.60;99.90;;;;;;5095056;28;20050;-65
2022/06/05 06:19:51;;;;;;;13.35;11.90;;;14.70;99.90;;;;;;5089431;28;20484;-66
2022/06/05 06:22:18;;;;;;;15.90;11.85;;;14.70;99.90;;;;;;5095433;28;20493;-65
2022/06/05 06:24:44;;;;;;;12.93;11.40;;;14.80;99.90;;;;;;5073392;28;20075;-65
2022/06/05 06:27:10;;;;;;;13.02;10.15;;;14.90;99.90;;;;;;5090134;28;20122;-65
2022/06/05 06:29:35;;;;;;;11.77;10.60;;;15.00;99.90;;;;;;5075874;28;20110;-65
2022/06/05 06:32:02;;;;;;;12.18;11.02;;;15.10;99.90;;;;;;5091504;28;20032;-65
2022/06/05 06:34:27;;;;;;;11.93;9.50;;;15.20;99.90;;;;;;5073100;28;20036;-65
2022/06/05 06:36:53;;;;;;;12.77;11.35;;;15.30;99.90;;;;;;5072306;28;20035;-65
2022/06/05 06:39:20;;;;;;;13.02;10.02;;;15.40;99.90;;;;;;5082511;28;20646;-65
2022/06/05 06:41:47;;;;;;;9.88;8.88;;;15.50;99.90;;;;;;5089253;28;20043;-65
2022/06/05 06:44:13;;;;;;;13.40;10.23;;;15.60;99.90;;;;;;5088910;28;20040;-65
2022/06/05 06:46:38;;;;;;;10.38;9.20;;;15.70;99.90;;;;;;5105315;28;20089;-65
2022/06/05 06:49:05;;;;;;;10.60;9.48;;;15.80;99.90;;;;;;5071305;28;20122;-65
2022/06/05 06:51:31;;;;;;;13.80;10.10;;;16.00;99.90;;;;;;5061241;28;20032;-65
2022/06/05 06:53:56;;;;;;;9.93;8.85;;;16.20;99.90;;;;;;5077648;28;20117;-65
2022/06/05 06:56:26;;;;;;;12.88;9.63;;;16.50;99.90;;;;;;5105498;28;20043;-65
2022/06/05 06:58:52;;;;;;;12.10;9.52;;;16.70;99.90;;;;;;5099667;28;20046;-65
2022/06/05 07:01:17;;;;;;;13.38;9.57;;;17.00;99.90;;;;;;5072583;28;20043;-65
2022/06/05 07:03:43;;;;;;;9.00;8.15;;;17.20;99.90;;;;;;5088417;28;20044;-65
2022/06/05 07:06:12;;;;;;;8.55;7.47;;;17.40;99.90;;;;;;5077128;28;20039;-65
2022/06/05 07:08:39;;;;;;;10.65;7.75;;;17.60;99.90;;;;;;5075589;28;20039;-65
2022/06/05 07:11:06;;;;;;;8.07;7.28;;;17.90;99.90;;;;;;5094132;28;20355;-65
2022/06/05 07:13:32;;;;;;;8.10;7.30;;;18.00;99.90;;;;;;5096230;28;20062;-66
2022/06/05 07:15:58;;;;;;;7.68;5.93;;;18.10;99.90;;;;;;5098731;28;20047;-66
2022/06/05 07:18:24;;;;;;;9.65;6.57;;;18.30;99.90;;;;;;5074717;28;20536;-66
2022/06/05 07:20:50;;;;;;;7.57;6.88;;;18.40;99.90;;;;;;5095033;28;20035;-66
2022/06/05 07:23:16;;;;;;;7.90;7.20;;;18.50;99.90;;;;;;5070586;28;20048;-66
2022/06/05 07:25:52;;;;;;;7.60;6.22;;;18.60;99.90;;;;;;5083025;28;20071;-66
2022/06/05 07:28:19;;;;;;;10.30;6.40;;;18.80;99.90;;;;;;5089442;28;20044;-66
2022/06/05 07:30:49;;;;;;;6.20;5.55;;;18.80;99.90;;;;;;5099379;27;20055;-66
2022/06/05 07:33:16;;;;;;;7.15;6.00;;;19.00;99.90;;;;;;5093061;28;20121;-66
2022/06/05 07:35:42;;;;;;;6.30;5.70;;;18.80;99.90;;;;;;5095734;28;20034;-66
2022/06/05 07:38:12;;;;;;;9.50;6.05;;;18.90;99.90;;;;;;5079072;28;20051;-66
2022/06/05 07:40:42;;;;;;;10.05;6.57;;;19.00;99.90;;;;;;5077682;28;20036;-66
2022/06/05 07:43:10;;;;;;;7.00;6.10;;;19.10;99.90;;;;;;5078855;28;20381;-66
2022/06/05 07:45:42;;;;;;;6.35;5.75;;;19.10;99.90;;;;;;5072245;28;20048;-66
2022/06/05 07:48:08;;;;;;;5.75;5.15;;;19.30;99.90;;;;;;5076739;28;20480;-66
2022/06/05 07:50:34;;;;;;;6.50;5.70;;;19.40;99.90;;;;;;5081192;28;20035;-66
2022/06/05 07:55:44;;;;;;;5.80;5.18;;;19.40;99.90;;;;;;5087797;28;20036;-66
2022/06/05 07:58:10;;;;;;;6.50;5.75;;;19.50;99.90;;;;;;5104202;27;20044;-66
2022/06/05 08:00:35;;;;;;;8.27;5.97;;;19.50;99.90;;;;;;5090864;28;20044;-66
2022/06/05 08:03:01;;;;;;;6.55;4.90;;;19.50;99.90;;;;;;5064719;28;20061;-66
2022/06/05 08:05:27;;;;;;;6.47;5.88;;;19.50;99.90;;;;;;5089689;28;20032;-66
2022/06/05 08:07:52;;;;;;;7.22;5.38;;;19.60;99.90;;;;;;5071558;28;20131;-66
2022/06/05 08:10:18;;;;;;;6.82;4.85;;;19.60;99.90;;;;;;5054924;28;20032;-66
2022/06/05 08:12:45;;;;;;;6.60;5.35;;;19.60;99.90;;;;;;5076729;28;20573;-66
2022/06/05 08:15:13;;;;;;;6.63;5.93;;;19.60;99.90;;;;;;5091915;28;20043;-66
2022/06/05 08:17:40;;;;;;;8.15;4.90;;;19.60;99.90;;;;;;5087783;28;20056;-66
2022/06/05 08:20:08;;;;;;;6.25;5.25;;;19.80;99.90;;;;;;5073306;28;20143;-66
2022/06/05 08:22:34;;;;;;;7.72;5.93;;;19.90;99.90;;;;;;5076083;28;20039;-66
2022/06/05 08:25:00;;;;;;;7.68;6.25;;;20.00;99.90;;;;;;5072079;28;20410;-66
2022/06/05 08:27:27;;;;;;;6.72;5.50;;;20.10;99.90;;;;;;5054980;28;20462;-66
2022/06/05 08:29:57;;;;;;;8.18;5.22;;;20.20;99.90;;;;;;5067245;28;20079;-66
2022/06/05 08:32:41;;;;;;;8.13;5.10;;;20.20;99.90;;;;;;5088858;28;20085;-66
2022/06/05 08:35:08;;;;;;;8.40;5.60;;;20.20;99.90;;;;;;5071441;28;21377;-66
2022/06/05 08:43:23;;;;;;;8.52;5.30;;;20.20;99.90;;;;;;5100732;27;20451;-66
2022/06/05 08:46:08;;;;;;;6.38;5.32;;;20.20;99.90;;;;;;5084186;28;20043;-66
2022/06/05 08:48:42;;;;;;;5.78;4.88;;;20.20;99.90;;;;;;5055041;28;20047;-66
2022/06/05 08:51:13;;;;;;;5.43;4.68;;;20.10;99.90;;;;;;5069299;28;20094;-66
2022/06/05 08:53:42;;;;;;;8.65;5.00;;;20.20;99.90;;;;;;5072248;28;20068;-66
2022/06/05 08:56:12;;;;;;;7.25;5.35;;;20.20;99.90;;;;;;5083585;28;20048;-66
2022/06/05 08:58:58;;;;;;;5.55;5.05;;;20.30;99.90;;;;;;5076385;28;20051;-66
2022/06/05 09:01:24;;;;;;;;;;;20.20;99.90;;;;;;5075010;28;20048;-66
2022/06/05 09:04:03;;;;;;;5.88;4.57;;;20.30;99.90;;;;;;5088135;28;20796;-66
2022/06/05 09:06:43;;;;;;;6.35;5.40;;;20.40;99.90;;;;;;5070644;28;20157;-66
2022/06/05 09:09:18;;;;;;;6.38;5.07;;;20.60;99.90;;;;;;5108293;27;20089;-67
2022/06/05 09:11:44;;;;;;;;;;;20.80;99.90;;;;;;5097224;28;20043;-66
2022/06/05 09:14:21;;;;;;;6.65;5.25;;;20.90;99.90;;;;;;5079832;28;19920;-66
2022/06/05 09:16:54;;;;;;;7.50;5.28;;;20.90;99.90;;;;;;5105367;27;20040;-66
2022/06/05 09:19:31;;;;;;;7.28;4.75;;;21.00;99.90;;;;;;5073608;28;20040;-66
2022/06/05 09:22:29;;;;;;;5.97;5.03;;;21.20;99.90;;;;;;5096614;28;20053;-66
2022/06/05 09:25:22;;;;;;;5.72;5.22;;;21.40;99.90;;;;;;5080098;28;20672;-66
2022/06/05 09:27:48;;;;;;;9.27;4.90;;;21.60;99.90;;;;;;5073586;28;20094;-66
2022/06/05 09:30:33;;;;;;;5.05;4.53;;;21.80;99.90;;;;;;5110613;27;20489;-66
2022/06/05 09:33:25;;;;;;;5.88;5.35;;;21.90;99.90;;;;;;5111666;27;20036;-66
2022/06/05 09:36:00;;;;;;;6.05;4.75;;;22.00;99.90;;;;;;5089482;28;20063;-66
2022/06/05 09:38:43;;;;;;;7.10;4.63;;;22.10;99.90;;;;;;5074396;28;20044;-65
2022/06/05 09:41:11;;;;;;;7.75;5.40;;;22.10;99.90;;;;;;5095419;28;20127;-65
2022/06/05 09:43:45;;;;;;;5.43;4.93;;;22.00;99.90;;;;;;5109963;27;20040;-66
2022/06/05 09:46:14;;;;;;;5.67;5.17;;;22.10;99.90;;;;;;5074917;28;20111;-66
2022/06/05 09:48:53;;;;;;;5.40;4.53;;;22.10;99.90;;;;;;5070191;28;20613;-66
2022/06/05 09:51:19;;;;;;;7.57;6.00;;;22.00;99.90;;;;;;5078978;28;20122;-66
2022/06/05 09:54:14;;;;;;;5.75;5.20;;;21.90;99.90;;;;;;5091782;28;20042;-66
2022/06/05 10:00:00;;;;;;;5.28;4.57;;;21.90;99.90;;;;;;5072518;28;20051;-66
2022/06/05 10:02:28;;;;;;;8.80;4.47;;;21.80;99.90;;;;;;5070692;28;20048;-66
2022/06/05 10:04:54;;;;;;;8.70;4.28;;;21.80;99.90;;;;;;5078985;28;20127;-66
2022/06/05 10:07:38;;;;;;;7.65;4.43;;;21.90;99.90;;;;;;5073955;28;20040;-65
2022/06/05 10:10:07;;;;;;;7.35;4.45;;;22.00;99.90;;;;;;5083562;28;21557;-65
2022/06/05 10:12:54;;;;;;;4.78;4.38;;;22.00;99.90;;;;;;5095501;28;20032;-66
2022/06/05 10:15:43;;;;;;;8.02;4.53;;;22.10;99.90;;;;;;5077578;28;20050;-66
2022/06/05 10:18:27;;;;;;;5.07;4.50;;;22.10;99.90;;;;;;5102465;28;20043;-66
2022/06/05 10:21:00;;;;;;;6.93;4.63;;;22.10;99.90;;;;;;5074891;28;20044;-66
2022/06/05 10:23:26;;;;;;;5.25;4.75;;;22.10;99.90;;;;;;5061675;28;20600;-66
2022/06/05 10:26:15;;;;;;;5.78;4.85;;;22.10;99.90;;;;;;5079778;28;20065;-65
2022/06/05 10:28:42;;;;;;;6.22;4.80;;;22.10;99.90;;;;;;5074316;28;20048;-66
2022/06/05 10:31:25;;;;;;;8.70;4.30;;;22.10;99.90;;;;;;5099211;28;20082;-65
2022/06/05 10:34:13;;;;;;;4.20;3.90;;;22.10;99.90;;;;;;5074485;28;20071;-66
2022/06/05 10:37:32;;;;;;;6.28;4.85;;;22.00;99.90;;;;;;5069784;28;20066;-65
2022/06/05 10:40:25;;;;;;;8.15;4.80;;;22.00;99.90;;;;;;5056964;28;20048;-66
2022/06/05 10:43:09;;;;;;;6.65;5.80;;;22.00;99.90;;;;;;5097384;28;20036;-66
2022/06/05 10:45:40;;;;;;;7.57;5.03;;;22.00;99.90;;;;;;5098772;28;20059;-66
2022/06/05 10:48:16;;;;;;;4.68;4.28;;;22.00;99.90;;;;;;5096796;28;20530;-66
2022/06/05 10:51:04;;;;;;;5.05;4.38;;;22.00;99.90;;;;;;5107683;27;20186;-66
2022/06/05 10:53:59;;;;;;;7.05;4.72;;;22.10;99.90;;;;;;5097617;27;20131;-66
2022/06/05 10:56:46;;;;;;;6.07;4.73;;;22.10;99.90;;;;;;5076774;28;20094;-66
2022/06/05 10:59:21;;;;;;;7.90;4.40;;;22.20;99.90;;;;;;5096636;28;20035;-66
2022/06/05 11:02:16;;;;;;;4.97;4.40;;;22.20;99.90;;;;;;5078702;28;20043;-66
2022/06/05 11:05:11;;;;;;;6.77;4.70;;;22.20;99.90;;;;;;5074173;28;20486;-66
2022/06/05 11:08:15;;;;;;;7.30;4.20;;;22.30;99.90;;;;;;5080819;28;20314;-66
2022/06/05 11:14:00;;;;;;;5.10;4.55;;;22.30;99.90;;;;;;5074841;28;20043;-66
2022/06/05 11:16:50;;;;;;;6.43;4.32;;;22.30;99.90;;;;;;5075604;28;20059;-66
2022/06/05 11:19:41;;;;;;;6.15;4.63;;;22.40;99.90;;;;;;5078491;28;20044;-66
2022/06/05 11:22:12;;;;;;;4.50;4.10;;;22.40;99.90;;;;;;5108626;27;20051;-66
2022/06/05 11:24:51;;;;;;;5.00;4.47;;;22.50;99.90;;;;;;5080468;28;20050;-66
2022/06/05 11:27:22;;;;;;;6.20;3.50;;;22.50;99.90;;;;;;5098044;28;20042;-66
2022/06/05 11:29:50;;;;;;;4.28;3.92;;;22.50;99.90;;;;;;5073131;28;20046;-66
2022/06/05 11:32:41;;;;;;;4.10;3.67;;;22.60;99.90;;;;;;5077538;28;20080;-66
2022/06/05 11:35:27;;;;;;;7.22;4.80;;;22.70;99.90;;;;;;5095415;28;20544;-66
2022/06/05 11:38:23;;;;;;;8.00;4.68;;;22.70;99.90;;;;;;5095477;28;20097;-66
2022/06/05 11:40:57;;;;;;;;;;;22.80;99.90;;;;;;5077700;28;20044;-66
2022/06/05 11:43:35;;;;;;;6.60;4.30;;;22.90;99.90;;;;;;5084641;28;21270;-66
2022/06/05 11:46:27;;;;;;;6.88;4.68;;;22.90;99.90;;;;;;5075919;28;20040;-66
2022/06/05 11:49:10;;;;;;;4.90;4.47;;;22.90;99.90;;;;;;5082906;28;20039;-66
2022/06/05 11:52:02;;;;;;;5.03;4.15;;;22.90;99.90;;;;;;5083169;28;20039;-66
2022/06/05 11:54:37;;;;;;;4.95;4.50;;;23.00;99.90;;;;;;5082665;28;20060;-66
2022/06/05 11:57:30;;;;;;;4.75;4.13;;;23.00;99.90;;;;;;5080593;28;20095;-66
2022/06/05 12:00:16;;;;;;;5.35;4.82;;;23.00;99.90;;;;;;5065359;28;20075;-66
2022/06/05 12:03:04;;;;;;;5.38;4.88;;;23.00;99.90;;;;;;5098016;28;20042;-66
2022/06/05 12:06:00;;;;;;;6.60;4.18;;;23.00;99.90;;;;;;5099764;28;20051;-66
2022/06/05 12:08:36;;;;;;;6.53;4.30;;;23.40;99.90;;;;;;5082250;28;20062;-66
2022/06/05 12:11:19;;;;;;;5.93;4.20;;;23.00;99.90;;;;;;5081561;28;20040;-66
2022/06/05 12:14:23;;;;;;;4.57;4.18;;;23.00;99.90;;;;;;5094355;28;20032;-66
2022/06/05 12:17:00;;;;;;;4.30;3.92;;;23.00;99.90;;;;;;5077599;28;20042;-66
2022/06/05 12:19:54;;;;;;;5.63;4.03;;;23.10;99.90;;;;;;5080380;28;20075;-66
2022/06/05 12:22:23;;;;;;;8.52;4.80;;;23.00;99.90;;;;;;5080346;28;20047;-66
2022/06/05 12:24:59;;;;;;;5.00;4.47;;;23.00;99.90;;;;;;5096205;28;20051;-66
2022/06/05 12:27:38;;;;;;;7.55;4.30;;;22.90;99.90;;;;;;5093487;28;20032;-66
2022/06/05 12:30:14;;;;;;;5.05;4.10;;;22.90;99.90;;;;;;5079918;28;20064;-66
2022/06/05 12:33:09;;;;;;;6.47;4.28;;;22.80;99.90;;;;;;5095543;28;20040;-66
2022/06/05 12:35:46;;;;;;;7.23;4.60;;;22.90;99.90;;;;;;5078579;28;20044;-66
2022/06/05 12:38:25;;;;;;;5.22;4.45;;;22.80;99.90;;;;;;5064367;28;20796;-66
2022/06/05 12:41:19;;;;;;;5.15;4.80;;;22.80;99.90;;;;;;5078077;28;20027;-66
2022/06/05 12:44:22;;;;;;;5.30;4.80;;;22.80;99.90;;;;;;5090211;28;20533;-66
2022/06/05 12:47:09;;;;;;;7.47;4.70;;;22.80;99.90;;;;;;5085269;28;20393;-66
2022/06/05 12:49:55;;;;;;;5.20;4.10;;;22.70;99.90;;;;;;5094674;28;20062;-66
2022/06/05 12:52:47;;;;;;;;;;;22.70;99.90;;;;;;5079405;28;20048;-66
2022/06/05 12:55:28;;;;;;;4.47;4.07;;;22.70;99.90;;;;;;5050440;28;19916;-66
2022/06/05 12:57:59;;;;;;;5.47;4.63;;;22.70;99.90;;;;;;5071847;28;20486;-66
2022/06/05 13:01:01;;;;;;;4.88;4.03;;;22.70;99.90;;;;;;5072125;28;20043;-66
2022/06/05 13:04:08;;;;;;;5.10;4.60;;;22.70;99.90;;;;;;5072512;28;20047;-66
2022/06/05 13:06:52;;;;;;;7.50;4.15;;;22.70;99.90;;;;;;5112622;27;20086;-66
2022/06/05 13:09:27;;;;;;;8.55;4.68;;;22.70;99.90;;;;;;5078267;28;20679;-66
2022/06/05 13:12:06;;;;;;;8.32;5.03;;;22.80;99.90;;;;;;5091738;28;20482;-66
2022/06/05 13:14:39;;;;;;;4.18;3.88;;;22.80;99.90;;;;;;5095368;28;20598;-66
2022/06/05 13:17:30;;;;;;;4.70;3.95;;;22.80;99.90;;;;;;5093966;28;20393;-66
2022/06/05 13:20:02;;;;;;;6.97;4.40;;;22.80;99.90;;;;;;5094648;28;20400;-66
2022/06/05 13:22:46;;;;;;;5.68;3.92;;;22.80;99.90;;;;;;5073105;28;20054;-66
2022/06/05 13:25:17;;;;;;;5.07;3.95;;;22.90;99.90;;;;;;5076371;28;20043;-66
2022/06/05 13:27:55;;;;;;;5.10;4.40;;;23.00;99.90;;;;;;5109069;27;21573;-66
2022/06/05 13:30:24;;;;;;;5.97;4.32;;;23.00;99.90;;;;;;5094877;28;20119;-66